sensor_id;sensor_type;location;lat;lon;timestamp;P1;durP1;ratioP1;P2;durP2;ratioP2
75038;SDS011;63609;49.992;14.512;2023-07-29T00:03:32;2.90;;;1.50;;
75038;SDS011;63609;49.992;14.512;2023-07-29T00:06:00;2.53;;;1.60;;
75038;SDS011;63609;49.992;14.512;2023-07-29T00:08:27;2.33;;;1.38;;
75038;SDS011;63609;49.992;14.512;2023-07-29T00:10:54;3.13;;;1.52;;
75038;SDS011;63609;49.992;14.512;2023-07-29T00:13:21;2.30;;;1.30;;
75038;SDS011;63609;49.992;14.512;2023-07-29T00:15:48;3.22;;;1.40;;
75038;SDS011;63609;49.992;14.512;2023-07-29T00:18:15;2.50;;;1.48;;
75038;SDS011;63609;49.992;14.512;2023-07-29T00:20:52;2.30;;;1.30;;
75038;SDS011;63609;49.992;14.512;2023-07-29T00:23:19;2.47;;;1.48;;
75038;SDS011;63609;49.992;14.512;2023-07-29T00:25:46;3.40;;;1.40;;
75038;SDS011;63609;49.992;14.512;2023-07-29T00:28:13;2.80;;;1.42;;
75038;SDS011;63609;49.992;14.512;2023-07-29T00:30:40;2.67;;;1.50;;
75038;SDS011;63609;49.992;14.512;2023-07-29T00:33:07;2.38;;;1.50;;
75038;SDS011;63609;49.992;14.512;2023-07-29T00:35:34;3.38;;;1.60;;
75038;SDS011;63609;49.992;14.512;2023-07-29T00:38:01;2.60;;;1.50;;
75038;SDS011;63609;49.992;14.512;2023-07-29T00:40:29;2.17;;;1.40;;
75038;SDS011;63609;49.992;14.512;2023-07-29T00:42:56;2.70;;;1.50;;
75038;SDS011;63609;49.992;14.512;2023-07-29T00:45:24;3.42;;;1.30;;
75038;SDS011;63609;49.992;14.512;2023-07-29T00:47:53;2.58;;;1.60;;
75038;SDS011;63609;49.992;14.512;2023-07-29T00:50:21;3.20;;;1.40;;
75038;SDS011;63609;49.992;14.512;2023-07-29T00:52:52;2.42;;;1.67;;
75038;SDS011;63609;49.992;14.512;2023-07-29T00:55:27;2.90;;;1.63;;
75038;SDS011;63609;49.992;14.512;2023-07-29T00:57:56;2.72;;;1.60;;
75038;SDS011;63609;49.992;14.512;2023-07-29T01:00:25;3.22;;;2.00;;
75038;SDS011;63609;49.992;14.512;2023-07-29T01:02:53;2.63;;;1.50;;
75038;SDS011;63609;49.992;14.512;2023-07-29T01:05:24;2.45;;;1.48;;
75038;SDS011;63609;49.992;14.512;2023-07-29T01:08:05;2.72;;;1.70;;
75038;SDS011;63609;49.992;14.512;2023-07-29T01:14:13;2.70;;;1.60;;
75038;SDS011;63609;49.992;14.512;2023-07-29T01:16:44;3.28;;;1.88;;
75038;SDS011;63609;49.992;14.512;2023-07-29T01:22:01;2.45;;;1.58;;
75038;SDS011;63609;49.992;14.512;2023-07-29T01:24:29;2.30;;;1.52;;
75038;SDS011;63609;49.992;14.512;2023-07-29T01:26:56;2.78;;;1.63;;
75038;SDS011;63609;49.992;14.512;2023-07-29T01:29:23;2.13;;;1.33;;
75038;SDS011;63609;49.992;14.512;2023-07-29T01:31:51;5.70;;;1.98;;
75038;SDS011;63609;49.992;14.512;2023-07-29T01:35:03;3.38;;;1.80;;
75038;SDS011;63609;49.992;14.512;2023-07-29T01:37:34;2.50;;;1.60;;
75038;SDS011;63609;49.992;14.512;2023-07-29T01:40:02;3.40;;;1.58;;
75038;SDS011;63609;49.992;14.512;2023-07-29T01:42:31;2.92;;;1.30;;
75038;SDS011;63609;49.992;14.512;2023-07-29T01:45:00;2.58;;;1.48;;
75038;SDS011;63609;49.992;14.512;2023-07-29T01:47:30;2.08;;;1.30;;
75038;SDS011;63609;49.992;14.512;2023-07-29T01:49:58;2.95;;;1.65;;
75038;SDS011;63609;49.992;14.512;2023-07-29T01:52:25;4.05;;;1.63;;
75038;SDS011;63609;49.992;14.512;2023-07-29T01:54:51;3.13;;;1.85;;
75038;SDS011;63609;49.992;14.512;2023-07-29T01:57:22;3.17;;;1.50;;
75038;SDS011;63609;49.992;14.512;2023-07-29T01:59:49;2.20;;;1.40;;
75038;SDS011;63609;49.992;14.512;2023-07-29T02:02:16;2.28;;;1.48;;
75038;SDS011;63609;49.992;14.512;2023-07-29T02:04:43;2.67;;;1.30;;
75038;SDS011;63609;49.992;14.512;2023-07-29T02:07:12;2.40;;;1.50;;
75038;SDS011;63609;49.992;14.512;2023-07-29T02:09:39;3.00;;;1.33;;
75038;SDS011;63609;49.992;14.512;2023-07-29T02:12:10;3.13;;;1.55;;
75038;SDS011;63609;49.992;14.512;2023-07-29T02:14:37;2.75;;;1.60;;
75038;SDS011;63609;49.992;14.512;2023-07-29T02:17:05;3.35;;;1.90;;
75038;SDS011;63609;49.992;14.512;2023-07-29T02:19:32;2.85;;;1.38;;
75038;SDS011;63609;49.992;14.512;2023-07-29T02:22:00;2.20;;;1.40;;
75038;SDS011;63609;49.992;14.512;2023-07-29T02:24:27;3.28;;;1.30;;
75038;SDS011;63609;49.992;14.512;2023-07-29T02:26:54;3.08;;;1.10;;
75038;SDS011;63609;49.992;14.512;2023-07-29T02:29:21;2.47;;;1.15;;
75038;SDS011;63609;49.992;14.512;2023-07-29T02:31:48;2.28;;;1.40;;
75038;SDS011;63609;49.992;14.512;2023-07-29T02:34:15;2.17;;;1.30;;
75038;SDS011;63609;49.992;14.512;2023-07-29T02:36:42;2.20;;;1.17;;
75038;SDS011;63609;49.992;14.512;2023-07-29T02:39:09;1.52;;;1.00;;
75038;SDS011;63609;49.992;14.512;2023-07-29T02:41:38;1.77;;;0.90;;
75038;SDS011;63609;49.992;14.512;2023-07-29T02:44:05;1.75;;;1.10;;
75038;SDS011;63609;49.992;14.512;2023-07-29T02:46:32;1.95;;;1.08;;
75038;SDS011;63609;49.992;14.512;2023-07-29T02:49:01;1.85;;;1.05;;
75038;SDS011;63609;49.992;14.512;2023-07-29T02:51:30;1.70;;;1.15;;
75038;SDS011;63609;49.992;14.512;2023-07-29T02:53:57;2.10;;;0.95;;
75038;SDS011;63609;49.992;14.512;2023-07-29T02:56:25;1.70;;;0.90;;
75038;SDS011;63609;49.992;14.512;2023-07-29T02:58:52;3.30;;;1.10;;
75038;SDS011;63609;49.992;14.512;2023-07-29T03:01:22;2.25;;;1.10;;
75038;SDS011;63609;49.992;14.512;2023-07-29T03:03:52;3.30;;;1.30;;
75038;SDS011;63609;49.992;14.512;2023-07-29T03:06:19;3.33;;;1.05;;
75038;SDS011;63609;49.992;14.512;2023-07-29T03:08:46;1.85;;;0.95;;
75038;SDS011;63609;49.992;14.512;2023-07-29T03:11:15;3.15;;;1.13;;
75038;SDS011;63609;49.992;14.512;2023-07-29T03:13:43;2.42;;;1.20;;
75038;SDS011;63609;49.992;14.512;2023-07-29T03:16:12;2.95;;;1.20;;
75038;SDS011;63609;49.992;14.512;2023-07-29T03:18:49;2.20;;;1.30;;
75038;SDS011;63609;49.992;14.512;2023-07-29T03:21:17;1.75;;;1.00;;
75038;SDS011;63609;49.992;14.512;2023-07-29T03:23:44;2.13;;;1.30;;
75038;SDS011;63609;49.992;14.512;2023-07-29T03:26:12;3.70;;;1.20;;
75038;SDS011;63609;49.992;14.512;2023-07-29T03:28:42;3.33;;;1.23;;
75038;SDS011;63609;49.992;14.512;2023-07-29T03:31:15;2.85;;;1.35;;
75038;SDS011;63609;49.992;14.512;2023-07-29T03:33:43;2.47;;;1.38;;
75038;SDS011;63609;49.992;14.512;2023-07-29T03:36:12;2.38;;;1.25;;
75038;SDS011;63609;49.992;14.512;2023-07-29T03:38:39;2.78;;;1.50;;
75038;SDS011;63609;49.992;14.512;2023-07-29T03:41:08;3.42;;;1.52;;
75038;SDS011;63609;49.992;14.512;2023-07-29T03:43:36;4.03;;;1.50;;
75038;SDS011;63609;49.992;14.512;2023-07-29T03:46:03;2.22;;;1.35;;
75038;SDS011;63609;49.992;14.512;2023-07-29T03:48:36;2.58;;;1.50;;
75038;SDS011;63609;49.992;14.512;2023-07-29T03:51:04;3.17;;;1.58;;
75038;SDS011;63609;49.992;14.512;2023-07-29T03:53:31;2.20;;;1.33;;
75038;SDS011;63609;49.992;14.512;2023-07-29T03:55:58;3.38;;;1.23;;
75038;SDS011;63609;49.992;14.512;2023-07-29T03:58:25;2.78;;;1.30;;
75038;SDS011;63609;49.992;14.512;2023-07-29T04:00:53;2.30;;;1.25;;
75038;SDS011;63609;49.992;14.512;2023-07-29T04:03:20;2.30;;;1.40;;
75038;SDS011;63609;49.992;14.512;2023-07-29T04:05:50;2.10;;;1.30;;
75038;SDS011;63609;49.992;14.512;2023-07-29T04:08:18;1.70;;;1.00;;
75038;SDS011;63609;49.992;14.512;2023-07-29T04:10:45;2.35;;;1.50;;
75038;SDS011;63609;49.992;14.512;2023-07-29T04:13:12;2.25;;;1.40;;
75038;SDS011;63609;49.992;14.512;2023-07-29T04:15:39;2.25;;;1.20;;
75038;SDS011;63609;49.992;14.512;2023-07-29T04:18:06;2.10;;;1.13;;
75038;SDS011;63609;49.992;14.512;2023-07-29T04:20:33;2.45;;;1.40;;
75038;SDS011;63609;49.992;14.512;2023-07-29T04:23:01;2.08;;;1.45;;
75038;SDS011;63609;49.992;14.512;2023-07-29T04:25:28;2.38;;;1.35;;
75038;SDS011;63609;49.992;14.512;2023-07-29T04:27:55;2.53;;;1.60;;
75038;SDS011;63609;49.992;14.512;2023-07-29T04:30:24;2.28;;;1.35;;
75038;SDS011;63609;49.992;14.512;2023-07-29T04:32:51;2.42;;;1.38;;
75038;SDS011;63609;49.992;14.512;2023-07-29T04:35:19;3.05;;;1.58;;
75038;SDS011;63609;49.992;14.512;2023-07-29T04:37:46;2.40;;;1.40;;
75038;SDS011;63609;49.992;14.512;2023-07-29T04:40:14;2.67;;;1.40;;
75038;SDS011;63609;49.992;14.512;2023-07-29T04:42:42;2.30;;;1.30;;
75038;SDS011;63609;49.992;14.512;2023-07-29T04:45:09;2.88;;;1.42;;
75038;SDS011;63609;49.992;14.512;2023-07-29T04:47:36;2.17;;;1.40;;
75038;SDS011;63609;49.992;14.512;2023-07-29T04:50:03;2.45;;;1.20;;
75038;SDS011;63609;49.992;14.512;2023-07-29T04:52:36;3.40;;;1.30;;
75038;SDS011;63609;49.992;14.512;2023-07-29T04:55:03;2.17;;;1.40;;
75038;SDS011;63609;49.992;14.512;2023-07-29T04:57:30;2.17;;;1.30;;
75038;SDS011;63609;49.992;14.512;2023-07-29T05:00:00;2.10;;;1.30;;
75038;SDS011;63609;49.992;14.512;2023-07-29T05:02:27;3.03;;;1.30;;
75038;SDS011;63609;49.992;14.512;2023-07-29T05:04:54;2.08;;;1.20;;
75038;SDS011;63609;49.992;14.512;2023-07-29T05:07:21;3.42;;;1.63;;
75038;SDS011;63609;49.992;14.512;2023-07-29T05:09:48;2.60;;;1.33;;
75038;SDS011;63609;49.992;14.512;2023-07-29T05:12:15;2.30;;;1.33;;
75038;SDS011;63609;49.992;14.512;2023-07-29T05:14:42;2.92;;;1.50;;
75038;SDS011;63609;49.992;14.512;2023-07-29T05:17:09;2.30;;;1.50;;
75038;SDS011;63609;49.992;14.512;2023-07-29T05:19:38;2.50;;;1.60;;
75038;SDS011;63609;49.992;14.512;2023-07-29T05:22:05;2.40;;;1.30;;
75038;SDS011;63609;49.992;14.512;2023-07-29T05:24:33;3.42;;;1.52;;
75038;SDS011;63609;49.992;14.512;2023-07-29T05:27:00;2.55;;;1.30;;
75038;SDS011;63609;49.992;14.512;2023-07-29T05:29:27;2.72;;;1.38;;
75038;SDS011;63609;49.992;14.512;2023-07-29T05:31:54;2.42;;;1.30;;
75038;SDS011;63609;49.992;14.512;2023-07-29T05:34:21;3.05;;;1.17;;
75038;SDS011;63609;49.992;14.512;2023-07-29T05:36:48;2.25;;;1.13;;
75038;SDS011;63609;49.992;14.512;2023-07-29T05:39:15;2.78;;;1.30;;
75038;SDS011;63609;49.992;14.512;2023-07-29T05:41:42;2.30;;;1.20;;
75038;SDS011;63609;49.992;14.512;2023-07-29T05:44:10;2.88;;;1.38;;
75038;SDS011;63609;49.992;14.512;2023-07-29T05:46:38;2.40;;;1.30;;
75038;SDS011;63609;49.992;14.512;2023-07-29T05:49:06;2.30;;;1.20;;
75038;SDS011;63609;49.992;14.512;2023-07-29T05:51:33;4.57;;;1.30;;
75038;SDS011;63609;49.992;14.512;2023-07-29T05:54:00;2.15;;;1.05;;
75038;SDS011;63609;49.992;14.512;2023-07-29T05:56:27;2.40;;;1.35;;
75038;SDS011;63609;49.992;14.512;2023-07-29T05:58:54;2.67;;;1.30;;
75038;SDS011;63609;49.992;14.512;2023-07-29T06:01:22;2.67;;;1.40;;
75038;SDS011;63609;49.992;14.512;2023-07-29T06:03:49;2.25;;;1.38;;
75038;SDS011;63609;49.992;14.512;2023-07-29T06:06:17;2.45;;;1.40;;
75038;SDS011;63609;49.992;14.512;2023-07-29T06:08:44;2.20;;;1.27;;
75038;SDS011;63609;49.992;14.512;2023-07-29T06:11:12;1.70;;;1.20;;
75038;SDS011;63609;49.992;14.512;2023-07-29T06:13:40;2.47;;;1.35;;
75038;SDS011;63609;49.992;14.512;2023-07-29T06:16:06;2.22;;;1.30;;
75038;SDS011;63609;49.992;14.512;2023-07-29T06:18:35;2.50;;;1.30;;
75038;SDS011;63609;49.992;14.512;2023-07-29T06:21:02;2.22;;;1.35;;
75038;SDS011;63609;49.992;14.512;2023-07-29T06:26:01;2.25;;;1.30;;
75038;SDS011;63609;49.992;14.512;2023-07-29T06:28:28;2.58;;;1.48;;
75038;SDS011;63609;49.992;14.512;2023-07-29T06:30:57;3.15;;;1.35;;
75038;SDS011;63609;49.992;14.512;2023-07-29T06:33:24;3.00;;;1.70;;
75038;SDS011;63609;49.992;14.512;2023-07-29T06:35:52;2.55;;;1.23;;
75038;SDS011;63609;49.992;14.512;2023-07-29T06:38:19;2.55;;;1.20;;
75038;SDS011;63609;49.992;14.512;2023-07-29T06:40:49;2.25;;;1.20;;
75038;SDS011;63609;49.992;14.512;2023-07-29T06:43:16;1.80;;;0.90;;
75038;SDS011;63609;49.992;14.512;2023-07-29T06:45:43;2.13;;;0.90;;
75038;SDS011;63609;49.992;14.512;2023-07-29T06:48:11;2.10;;;1.13;;
75038;SDS011;63609;49.992;14.512;2023-07-29T06:50:39;3.20;;;1.17;;
75038;SDS011;63609;49.992;14.512;2023-07-29T06:53:06;2.17;;;1.15;;
75038;SDS011;63609;49.992;14.512;2023-07-29T06:55:33;2.15;;;1.17;;
75038;SDS011;63609;49.992;14.512;2023-07-29T06:58:00;2.10;;;1.05;;
75038;SDS011;63609;49.992;14.512;2023-07-29T07:00:27;2.72;;;1.27;;
75038;SDS011;63609;49.992;14.512;2023-07-29T07:02:54;2.13;;;1.13;;
75038;SDS011;63609;49.992;14.512;2023-07-29T07:05:24;2.58;;;1.35;;
75038;SDS011;63609;49.992;14.512;2023-07-29T07:07:52;1.88;;;1.23;;
75038;SDS011;63609;49.992;14.512;2023-07-29T07:10:19;2.05;;;1.27;;
75038;SDS011;63609;49.992;14.512;2023-07-29T07:12:46;2.08;;;1.20;;
75038;SDS011;63609;49.992;14.512;2023-07-29T07:15:13;2.20;;;1.38;;
75038;SDS011;63609;49.992;14.512;2023-07-29T07:17:41;2.10;;;1.05;;
75038;SDS011;63609;49.992;14.512;2023-07-29T07:20:10;2.92;;;1.20;;
75038;SDS011;63609;49.992;14.512;2023-07-29T07:22:39;2.75;;;1.25;;
75038;SDS011;63609;49.992;14.512;2023-07-29T07:25:06;2.60;;;1.00;;
75038;SDS011;63609;49.992;14.512;2023-07-29T07:27:37;2.15;;;1.25;;
75038;SDS011;63609;49.992;14.512;2023-07-29T07:30:05;2.78;;;1.20;;
75038;SDS011;63609;49.992;14.512;2023-07-29T07:32:39;1.95;;;1.15;;
75038;SDS011;63609;49.992;14.512;2023-07-29T07:35:08;2.45;;;1.30;;
75038;SDS011;63609;49.992;14.512;2023-07-29T07:37:37;2.35;;;1.20;;
75038;SDS011;63609;49.992;14.512;2023-07-29T07:40:06;2.78;;;1.42;;
75038;SDS011;63609;49.992;14.512;2023-07-29T07:42:36;2.60;;;1.35;;
75038;SDS011;63609;49.992;14.512;2023-07-29T07:45:03;2.08;;;1.10;;
75038;SDS011;63609;49.992;14.512;2023-07-29T07:47:31;3.25;;;1.50;;
75038;SDS011;63609;49.992;14.512;2023-07-29T07:50:00;1.80;;;1.08;;
75038;SDS011;63609;49.992;14.512;2023-07-29T07:52:28;2.83;;;1.20;;
75038;SDS011;63609;49.992;14.512;2023-07-29T07:54:57;2.10;;;1.20;;
75038;SDS011;63609;49.992;14.512;2023-07-29T07:57:24;5.93;;;1.10;;
75038;SDS011;63609;49.992;14.512;2023-07-29T07:59:51;2.38;;;1.20;;
75038;SDS011;63609;49.992;14.512;2023-07-29T08:02:19;1.88;;;0.93;;
75038;SDS011;63609;49.992;14.512;2023-07-29T08:04:47;1.77;;;0.93;;
75038;SDS011;63609;49.992;14.512;2023-07-29T08:07:14;1.95;;;1.00;;
75038;SDS011;63609;49.992;14.512;2023-07-29T08:09:41;2.00;;;0.90;;
75038;SDS011;63609;49.992;14.512;2023-07-29T08:12:09;1.85;;;1.00;;
75038;SDS011;63609;49.992;14.512;2023-07-29T08:14:36;1.90;;;0.90;;
75038;SDS011;63609;49.992;14.512;2023-07-29T08:17:03;1.48;;;0.90;;
75038;SDS011;63609;49.992;14.512;2023-07-29T08:19:31;1.60;;;0.90;;
75038;SDS011;63609;49.992;14.512;2023-07-29T08:22:04;1.90;;;1.08;;
75038;SDS011;63609;49.992;14.512;2023-07-29T08:24:33;2.08;;;1.10;;
75038;SDS011;63609;49.992;14.512;2023-07-29T08:27:00;1.55;;;0.85;;
75038;SDS011;63609;49.992;14.512;2023-07-29T08:29:27;1.60;;;0.85;;
75038;SDS011;63609;49.992;14.512;2023-07-29T08:31:54;1.50;;;0.80;;
75038;SDS011;63609;49.992;14.512;2023-07-29T08:34:22;2.53;;;1.00;;
75038;SDS011;63609;49.992;14.512;2023-07-29T08:36:49;1.77;;;0.90;;
75038;SDS011;63609;49.992;14.512;2023-07-29T08:39:16;1.80;;;0.93;;
75038;SDS011;63609;49.992;14.512;2023-07-29T08:42:01;1.20;;;0.80;;
75038;SDS011;63609;49.992;14.512;2023-07-29T08:44:36;2.88;;;0.80;;
75038;SDS011;63609;49.992;14.512;2023-07-29T08:47:08;1.67;;;0.90;;
75038;SDS011;63609;49.992;14.512;2023-07-29T08:49:36;1.85;;;0.95;;
75038;SDS011;63609;49.992;14.512;2023-07-29T08:52:05;1.88;;;0.90;;
75038;SDS011;63609;49.992;14.512;2023-07-29T08:54:33;1.95;;;0.90;;
75038;SDS011;63609;49.992;14.512;2023-07-29T08:57:00;1.58;;;0.90;;
75038;SDS011;63609;49.992;14.512;2023-07-29T08:59:32;1.75;;;0.90;;
75038;SDS011;63609;49.992;14.512;2023-07-29T09:02:00;1.65;;;1.00;;
75038;SDS011;63609;49.992;14.512;2023-07-29T09:04:28;1.80;;;0.90;;
75038;SDS011;63609;49.992;14.512;2023-07-29T09:06:55;2.03;;;1.00;;
75038;SDS011;63609;49.992;14.512;2023-07-29T09:09:23;1.50;;;0.88;;
75038;SDS011;63609;49.992;14.512;2023-07-29T09:11:50;1.83;;;1.02;;
75038;SDS011;63609;49.992;14.512;2023-07-29T09:14:17;2.00;;;1.00;;
75038;SDS011;63609;49.992;14.512;2023-07-29T09:16:45;2.10;;;1.10;;
75038;SDS011;63609;49.992;14.512;2023-07-29T09:19:12;2.45;;;0.90;;
75038;SDS011;63609;49.992;14.512;2023-07-29T09:21:39;2.60;;;1.17;;
75038;SDS011;63609;49.992;14.512;2023-07-29T09:24:07;1.80;;;1.00;;
75038;SDS011;63609;49.992;14.512;2023-07-29T09:26:35;3.97;;;1.20;;
75038;SDS011;63609;49.992;14.512;2023-07-29T09:29:04;2.00;;;1.00;;
75038;SDS011;63609;49.992;14.512;2023-07-29T09:31:31;2.28;;;1.00;;
75038;SDS011;63609;49.992;14.512;2023-07-29T09:33:59;1.67;;;0.90;;
75038;SDS011;63609;49.992;14.512;2023-07-29T09:36:31;1.58;;;0.88;;
75038;SDS011;63609;49.992;14.512;2023-07-29T09:39:02;2.72;;;1.13;;
75038;SDS011;63609;49.992;14.512;2023-07-29T09:41:30;1.85;;;1.00;;
75038;SDS011;63609;49.992;14.512;2023-07-29T09:44:00;1.80;;;0.95;;
75038;SDS011;63609;49.992;14.512;2023-07-29T09:46:35;1.70;;;0.90;;
75038;SDS011;63609;49.992;14.512;2023-07-29T09:49:05;2.13;;;1.15;;
75038;SDS011;63609;49.992;14.512;2023-07-29T09:51:37;1.90;;;1.00;;
75038;SDS011;63609;49.992;14.512;2023-07-29T09:54:06;1.70;;;0.90;;
75038;SDS011;63609;49.992;14.512;2023-07-29T09:56:41;1.75;;;1.05;;
75038;SDS011;63609;49.992;14.512;2023-07-29T09:59:11;2.88;;;1.20;;
75038;SDS011;63609;49.992;14.512;2023-07-29T10:01:39;1.75;;;1.00;;
75038;SDS011;63609;49.992;14.512;2023-07-29T10:04:08;1.60;;;0.80;;
75038;SDS011;63609;49.992;14.512;2023-07-29T10:06:39;1.88;;;0.90;;
75038;SDS011;63609;49.992;14.512;2023-07-29T10:09:10;1.90;;;1.00;;
75038;SDS011;63609;49.992;14.512;2023-07-29T10:11:39;1.80;;;0.90;;
75038;SDS011;63609;49.992;14.512;2023-07-29T10:14:08;1.77;;;0.95;;
75038;SDS011;63609;49.992;14.512;2023-07-29T10:16:39;5.82;;;1.08;;
75038;SDS011;63609;49.992;14.512;2023-07-29T10:19:08;1.90;;;1.10;;
75038;SDS011;63609;49.992;14.512;2023-07-29T10:21:38;2.78;;;1.00;;
75038;SDS011;63609;49.992;14.512;2023-07-29T10:24:09;1.95;;;0.80;;
75038;SDS011;63609;49.992;14.512;2023-07-29T10:26:47;1.83;;;0.80;;
75038;SDS011;63609;49.992;14.512;2023-07-29T10:29:21;1.88;;;0.80;;
75038;SDS011;63609;49.992;14.512;2023-07-29T10:31:54;1.42;;;0.70;;
75038;SDS011;63609;49.992;14.512;2023-07-29T10:34:24;2.17;;;0.80;;
75038;SDS011;63609;49.992;14.512;2023-07-29T10:36:52;1.65;;;0.90;;
75038;SDS011;63609;49.992;14.512;2023-07-29T10:39:20;1.60;;;0.90;;
75038;SDS011;63609;49.992;14.512;2023-07-29T10:42:00;1.70;;;0.82;;
75038;SDS011;63609;49.992;14.512;2023-07-29T10:49:48;2.58;;;1.00;;
75038;SDS011;63609;49.992;14.512;2023-07-29T10:52:27;1.75;;;1.00;;
75038;SDS011;63609;49.992;14.512;2023-07-29T10:55:01;2.25;;;1.00;;
75038;SDS011;63609;49.992;14.512;2023-07-29T10:57:49;2.13;;;1.02;;
75038;SDS011;63609;49.992;14.512;2023-07-29T11:00:18;3.13;;;1.00;;
75038;SDS011;63609;49.992;14.512;2023-07-29T11:02:59;2.75;;;0.82;;
75038;SDS011;63609;49.992;14.512;2023-07-29T11:08:27;1.95;;;0.98;;
75038;SDS011;63609;49.992;14.512;2023-07-29T11:13:45;2.35;;;1.25;;
75038;SDS011;63609;49.992;14.512;2023-07-29T11:16:13;2.13;;;1.10;;
75038;SDS011;63609;49.992;14.512;2023-07-29T11:18:46;1.95;;;1.10;;
75038;SDS011;63609;49.992;14.512;2023-07-29T11:21:14;1.90;;;1.00;;
75038;SDS011;63609;49.992;14.512;2023-07-29T11:23:42;2.92;;;1.10;;
75038;SDS011;63609;49.992;14.512;2023-07-29T11:26:11;2.25;;;1.10;;
75038;SDS011;63609;49.992;14.512;2023-07-29T11:28:39;2.00;;;1.30;;
75038;SDS011;63609;49.992;14.512;2023-07-29T11:31:08;1.83;;;1.02;;
75038;SDS011;63609;49.992;14.512;2023-07-29T11:33:38;2.15;;;0.98;;
75038;SDS011;63609;49.992;14.512;2023-07-29T11:36:06;1.85;;;1.00;;
75038;SDS011;63609;49.992;14.512;2023-07-29T11:38:33;1.80;;;0.60;;
75038;SDS011;63609;49.992;14.512;2023-07-29T11:41:03;4.07;;;0.80;;
75038;SDS011;63609;49.992;14.512;2023-07-29T11:43:34;2.03;;;0.63;;
75038;SDS011;63609;49.992;14.512;2023-07-29T11:46:01;3.10;;;0.80;;
75038;SDS011;63609;49.992;14.512;2023-07-29T11:48:38;1.45;;;0.60;;
75038;SDS011;63609;49.992;14.512;2023-07-29T11:51:06;3.10;;;1.05;;
75038;SDS011;63609;49.992;14.512;2023-07-29T11:53:33;2.13;;;0.70;;
75038;SDS011;63609;49.992;14.512;2023-07-29T11:56:01;1.52;;;0.60;;
75038;SDS011;63609;49.992;14.512;2023-07-29T11:58:30;2.60;;;0.70;;
75038;SDS011;63609;49.992;14.512;2023-07-29T12:00:59;3.08;;;0.80;;
75038;SDS011;63609;49.992;14.512;2023-07-29T12:03:26;3.03;;;0.65;;
75038;SDS011;63609;49.992;14.512;2023-07-29T12:05:54;2.40;;;0.70;;
75038;SDS011;63609;49.992;14.512;2023-07-29T12:08:21;2.63;;;0.70;;
75038;SDS011;63609;49.992;14.512;2023-07-29T12:10:49;2.97;;;0.95;;
75038;SDS011;63609;49.992;14.512;2023-07-29T12:13:16;2.63;;;0.90;;
75038;SDS011;63609;49.992;14.512;2023-07-29T12:15:43;2.17;;;0.82;;
75038;SDS011;63609;49.992;14.512;2023-07-29T12:18:11;1.75;;;0.70;;
75038;SDS011;63609;49.992;14.512;2023-07-29T12:20:39;2.45;;;0.63;;
75038;SDS011;63609;49.992;14.512;2023-07-29T12:23:08;1.42;;;0.50;;
75038;SDS011;63609;49.992;14.512;2023-07-29T12:25:34;3.20;;;0.88;;
75038;SDS011;63609;49.992;14.512;2023-07-29T12:28:02;1.65;;;0.70;;
75038;SDS011;63609;49.992;14.512;2023-07-29T12:30:31;2.17;;;0.85;;
75038;SDS011;63609;49.992;14.512;2023-07-29T12:33:00;1.98;;;0.90;;
75038;SDS011;63609;49.992;14.512;2023-07-29T12:35:35;1.92;;;0.80;;
75038;SDS011;63609;49.992;14.512;2023-07-29T12:38:03;2.00;;;0.70;;
75038;SDS011;63609;49.992;14.512;2023-07-29T12:40:30;1.67;;;0.57;;
75038;SDS011;63609;49.992;14.512;2023-07-29T12:42:57;2.53;;;0.60;;
75038;SDS011;63609;49.992;14.512;2023-07-29T12:45:25;1.75;;;1.02;;
75038;SDS011;63609;49.992;14.512;2023-07-29T12:47:55;1.88;;;0.90;;
75038;SDS011;63609;49.992;14.512;2023-07-29T12:50:22;2.83;;;0.80;;
75038;SDS011;63609;49.992;14.512;2023-07-29T12:52:49;1.60;;;0.70;;
75038;SDS011;63609;49.992;14.512;2023-07-29T12:55:16;3.55;;;1.98;;
75038;SDS011;63609;49.992;14.512;2023-07-29T12:57:49;2.40;;;0.80;;
75038;SDS011;63609;49.992;14.512;2023-07-29T13:00:17;2.03;;;0.82;;
75038;SDS011;63609;49.992;14.512;2023-07-29T13:02:48;3.30;;;1.00;;
75038;SDS011;63609;49.992;14.512;2023-07-29T13:05:15;1.63;;;0.70;;
75038;SDS011;63609;49.992;14.512;2023-07-29T13:07:42;2.67;;;1.10;;
75038;SDS011;63609;49.992;14.512;2023-07-29T13:10:10;4.63;;;1.17;;
75038;SDS011;63609;49.992;14.512;2023-07-29T13:12:37;3.38;;;1.05;;
75038;SDS011;63609;49.992;14.512;2023-07-29T13:15:05;3.08;;;1.25;;
75038;SDS011;63609;49.992;14.512;2023-07-29T13:17:33;3.90;;;1.33;;
75038;SDS011;63609;49.992;14.512;2023-07-29T13:20:02;5.47;;;1.30;;
75038;SDS011;63609;49.992;14.512;2023-07-29T13:22:31;3.83;;;1.10;;
75038;SDS011;63609;49.992;14.512;2023-07-29T13:24:59;4.13;;;1.25;;
75038;SDS011;63609;49.992;14.512;2023-07-29T13:27:27;1.60;;;0.75;;
75038;SDS011;63609;49.992;14.512;2023-07-29T13:29:55;4.10;;;1.33;;
75038;SDS011;63609;49.992;14.512;2023-07-29T13:32:25;2.42;;;1.08;;
75038;SDS011;63609;49.992;14.512;2023-07-29T13:34:52;2.08;;;0.98;;
75038;SDS011;63609;49.992;14.512;2023-07-29T13:37:19;2.20;;;0.90;;
75038;SDS011;63609;49.992;14.512;2023-07-29T13:39:47;2.90;;;1.08;;
75038;SDS011;63609;49.992;14.512;2023-07-29T13:42:22;2.88;;;1.10;;
75038;SDS011;63609;49.992;14.512;2023-07-29T13:44:54;5.55;;;1.75;;
75038;SDS011;63609;49.992;14.512;2023-07-29T13:47:22;3.33;;;1.10;;
75038;SDS011;63609;49.992;14.512;2023-07-29T13:49:49;2.65;;;0.90;;
75038;SDS011;63609;49.992;14.512;2023-07-29T13:52:16;2.53;;;1.00;;
75038;SDS011;63609;49.992;14.512;2023-07-29T13:54:43;1.88;;;1.00;;
75038;SDS011;63609;49.992;14.512;2023-07-29T13:57:11;1.90;;;1.02;;
75038;SDS011;63609;49.992;14.512;2023-07-29T13:59:41;2.08;;;1.10;;
75038;SDS011;63609;49.992;14.512;2023-07-29T14:02:08;2.40;;;1.20;;
75038;SDS011;63609;49.992;14.512;2023-07-29T14:04:35;1.95;;;1.00;;
75038;SDS011;63609;49.992;14.512;2023-07-29T14:07:03;2.20;;;0.80;;
75038;SDS011;63609;49.992;14.512;2023-07-29T14:09:34;1.92;;;0.82;;
75038;SDS011;63609;49.992;14.512;2023-07-29T14:12:04;1.85;;;1.00;;
75038;SDS011;63609;49.992;14.512;2023-07-29T14:14:33;1.85;;;0.80;;
75038;SDS011;63609;49.992;14.512;2023-07-29T14:17:00;2.03;;;1.02;;
75038;SDS011;63609;49.992;14.512;2023-07-29T14:19:27;1.27;;;0.70;;
75038;SDS011;63609;49.992;14.512;2023-07-29T14:21:54;2.00;;;0.88;;
75038;SDS011;63609;49.992;14.512;2023-07-29T14:24:22;2.70;;;1.00;;
75038;SDS011;63609;49.992;14.512;2023-07-29T14:26:50;1.55;;;0.77;;
75038;SDS011;63609;49.992;14.512;2023-07-29T14:29:18;1.55;;;0.80;;
75038;SDS011;63609;49.992;14.512;2023-07-29T14:31:44;1.38;;;0.73;;
75038;SDS011;63609;49.992;14.512;2023-07-29T14:34:11;1.45;;;0.70;;
75038;SDS011;63609;49.992;14.512;2023-07-29T14:36:39;2.63;;;1.10;;
75038;SDS011;63609;49.992;14.512;2023-07-29T14:39:08;1.40;;;0.70;;
75038;SDS011;63609;49.992;14.512;2023-07-29T14:41:35;1.23;;;0.60;;
75038;SDS011;63609;49.992;14.512;2023-07-29T14:44:02;1.58;;;0.80;;
75038;SDS011;63609;49.992;14.512;2023-07-29T14:46:29;1.60;;;0.80;;
75038;SDS011;63609;49.992;14.512;2023-07-29T14:48:56;1.83;;;0.98;;
75038;SDS011;63609;49.992;14.512;2023-07-29T14:51:23;1.52;;;0.70;;
75038;SDS011;63609;49.992;14.512;2023-07-29T14:53:50;1.70;;;0.90;;
75038;SDS011;63609;49.992;14.512;2023-07-29T14:56:17;1.23;;;0.73;;
75038;SDS011;63609;49.992;14.512;2023-07-29T14:58:49;1.73;;;0.73;;
75038;SDS011;63609;49.992;14.512;2023-07-29T15:01:17;1.55;;;0.80;;
75038;SDS011;63609;49.992;14.512;2023-07-29T15:03:44;1.83;;;0.70;;